Time,TemperatureF,DewpointF,PressureIn,WindDirection,WindDirectionDegrees,WindSpeedMPH,WindSpeedGustMPH,Humidity,HourlyPrecipIn,Conditions,Clouds,dailyrainin,SoftwareType,DateUTC
2013-02-05 00:03:00,47.3,43.5,29.91,South,174,7.0,26.0,73,0.00,,,0.00,meteohub,2013-02-05 08:03:00,
2013-02-05 00:08:00,47.5,43.0,29.91,SSE,160,9.0,26.0,73,0.00,,,0.00,meteohub,2013-02-05 08:08:00,
2013-02-05 00:13:00,47.5,43.0,29.91,South,182,5.0,26.0,73,0.00,,,0.00,meteohub,2013-02-05 08:13:00,
2013-02-05 00:18:00,47.5,43.5,29.92,South,169,10.0,20.0,73,0.00,,,0.00,meteohub,2013-02-05 08:18:00,
2013-02-05 00:23:00,47.5,43.0,29.92,SSE,163,4.0,24.0,73,0.00,,,0.00,meteohub,2013-02-05 08:23:00,
2013-02-05 00:28:00,47.5,43.0,29.92,South,178,6.0,24.0,74,0.00,,,0.00,meteohub,2013-02-05 08:28:00,
2013-02-05 00:33:00,47.5,43.5,29.92,South,176,13.0,24.0,74,0.00,,,0.00,meteohub,2013-02-05 08:33:00,
2013-02-05 00:38:00,47.7,43.0,29.92,South,188,9.0,18.0,74,0.00,,,0.00,meteohub,2013-02-05 08:38:00,
2013-02-05 00:43:00,47.7,43.0,29.91,South,182,14.0,25.0,74,0.00,,,0.00,meteohub,2013-02-05 08:43:00,
2013-02-05 00:48:00,47.8,43.0,29.92,South,172,15.0,25.0,74,0.00,,,0.00,meteohub,2013-02-05 08:48:00,
2013-02-05 00:53:00,47.8,43.0,29.91,South,182,4.0,25.0,74,0.00,,,0.00,meteohub,2013-02-05 08:53:00,
2013-02-05 00:58:00,47.7,43.0,29.92,South,177,12.0,24.0,74,0.00,,,0.00,meteohub,2013-02-05 08:58:00,
2013-02-05 01:03:00,47.7,43.0,29.91,South,180,14.0,24.0,74,0.00,,,0.00,meteohub,2013-02-05 09:03:00,
2013-02-05 01:08:00,47.7,43.0,29.91,South,191,16.0,20.0,74,0.00,,,0.00,meteohub,2013-02-05 09:08:00,
2013-02-05 01:13:00,47.8,43.0,29.91,South,179,7.0,19.0,74,0.00,,,0.00,meteohub,2013-02-05 09:13:00,
2013-02-05 01:18:00,47.8,43.0,29.91,South,169,9.0,18.0,74,0.00,,,0.00,meteohub,2013-02-05 09:18:00,
2013-02-05 01:23:00,47.5,43.0,29.91,SE,140,8.0,19.0,73,0.00,,,0.00,meteohub,2013-02-05 09:23:00,
2013-02-05 01:28:00,47.5,43.0,29.91,South,171,12.0,24.0,73,0.00,,,0.00,meteohub,2013-02-05 09:28:00,
2013-02-05 01:33:00,47.1,43.0,29.91,SSE,165,17.0,24.0,72,0.00,,,0.00,meteohub,2013-02-05 09:33:00,
2013-02-05 01:38:00,47.1,43.0,29.91,SSE,167,22.0,24.0,72,0.00,,,0.00,meteohub,2013-02-05 09:38:00,
2013-02-05 01:43:00,46.9,43.0,29.91,SSE,150,5.0,27.0,71,0.00,,,0.00,meteohub,2013-02-05 09:43:00,
2013-02-05 01:48:00,46.9,43.0,29.90,SSE,162,12.0,27.0,71,0.00,,,0.00,meteohub,2013-02-05 09:48:00,
2013-02-05 01:53:00,46.9,43.0,29.90,SSE,161,16.0,27.0,70,0.00,,,0.00,meteohub,2013-02-05 09:53:00,
2013-02-05 01:58:00,46.8,43.0,29.90,SSE,159,7.0,19.0,70,0.00,,,0.00,meteohub,2013-02-05 09:58:00,
2013-02-05 02:03:00,46.8,43.0,29.90,SSE,159,6.0,17.0,69,0.00,,,0.00,meteohub,2013-02-05 10:03:00,
2013-02-05 02:08:00,46.6,43.0,29.90,SE,145,10.0,17.0,68,0.00,,,0.00,meteohub,2013-02-05 10:08:00,
2013-02-05 02:14:00,46.6,43.0,29.90,South,169,11.0,17.0,68,0.00,,,0.00,meteohub,2013-02-05 10:14:00,
2013-02-05 02:19:00,46.4,43.0,29.90,South,185,9.0,19.0,67,0.00,,,0.00,meteohub,2013-02-05 10:19:00,
2013-02-05 02:24:00,46.4,43.0,29.90,South,180,14.0,20.0,67,0.00,,,0.00,meteohub,2013-02-05 10:24:00,
2013-02-05 02:29:00,46.2,43.0,29.90,SSE,164,13.0,20.0,66,0.01,,,0.01,meteohub,2013-02-05 10:29:00,
2013-02-05 02:35:00,46.2,43.0,29.90,South,181,10.0,20.0,66,0.01,,,0.01,meteohub,2013-02-05 10:35:00,
2013-02-05 02:40:00,46.2,43.0,29.90,South,178,6.0,20.0,66,0.01,,,0.01,meteohub,2013-02-05 10:40:00,
2013-02-05 02:45:00,46.2,43.0,29.89,South,173,10.0,20.0,65,0.01,,,0.01,meteohub,2013-02-05 10:45:00,
2013-02-05 02:50:00,46.2,43.0,29.89,SSE,163,21.0,21.0,65,0.01,,,0.01,meteohub,2013-02-05 10:50:00,
2013-02-05 02:55:00,46.0,43.0,29.89,South,182,8.0,22.0,65,0.01,,,0.01,meteohub,2013-02-05 10:55:00,
2013-02-05 03:00:00,46.0,42.8,29.89,SE,145,7.0,22.0,65,0.01,,,0.01,meteohub,2013-02-05 11:00:00,
2013-02-05 03:06:00,46.0,42.8,29.89,SE,142,12.0,22.0,65,0.01,,,0.01,meteohub,2013-02-05 11:06:00,
2013-02-05 03:11:00,46.0,42.8,29.88,South,178,12.0,17.0,64,0.02,,,0.02,meteohub,2013-02-05 11:11:00,
2013-02-05 03:16:00,46.0,42.8,29.88,SSE,151,9.0,19.0,64,0.02,,,0.02,meteohub,2013-02-05 11:16:00,
2013-02-05 03:21:00,46.0,42.8,29.89,SSE,160,10.0,19.0,64,0.03,,,0.03,meteohub,2013-02-05 11:21:00,
2013-02-05 03:26:00,45.9,42.8,29.89,South,175,9.0,19.0,64,0.03,,,0.03,meteohub,2013-02-05 11:26:00,
2013-02-05 03:32:00,45.9,42.8,29.88,SE,143,9.0,20.0,64,0.02,,,0.03,meteohub,2013-02-05 11:32:00,
2013-02-05 03:37:00,45.9,42.8,29.88,SSE,152,6.0,20.0,64,0.04,,,0.05,meteohub,2013-02-05 11:37:00,
2013-02-05 03:42:00,45.9,42.8,29.88,SE,138,10.0,20.0,64,0.05,,,0.06,meteohub,2013-02-05 11:42:00,
2013-02-05 03:47:00,45.9,42.8,29.88,South,171,4.0,20.0,64,0.05,,,0.07,meteohub,2013-02-05 11:47:00,
2013-02-05 03:52:00,45.9,42.8,29.89,SSE,165,11.0,19.0,64,0.06,,,0.07,meteohub,2013-02-05 11:52:00,
2013-02-05 03:57:00,45.9,42.8,29.89,SSE,165,13.0,18.0,64,0.07,,,0.08,meteohub,2013-02-05 11:57:00,
2013-02-05 04:03:00,45.9,42.8,29.89,SE,146,8.0,15.0,64,0.07,,,0.09,meteohub,2013-02-05 12:03:00,
2013-02-05 04:08:00,45.9,42.8,29.88,SE,140,10.0,19.0,64,0.08,,,0.09,meteohub,2013-02-05 12:08:00,
2013-02-05 04:13:00,45.9,42.8,29.88,SE,140,15.0,21.0,64,0.09,,,0.11,meteohub,2013-02-05 12:13:00,
2013-02-05 04:18:00,45.9,42.8,29.88,SSE,150,12.0,21.0,64,0.08,,,0.11,meteohub,2013-02-05 12:18:00,
2013-02-05 04:23:00,46.0,42.8,29.88,SSE,159,10.0,21.0,64,0.08,,,0.11,meteohub,2013-02-05 12:23:00,
2013-02-05 04:28:00,46.0,42.8,29.88,South,176,8.0,20.0,64,0.07,,,0.11,meteohub,2013-02-05 12:28:00,
2013-02-05 04:33:00,46.0,42.8,29.88,SSE,150,9.0,20.0,64,0.06,,,0.11,meteohub,2013-02-05 12:33:00,
2013-02-05 04:38:00,46.0,42.8,29.88,SSE,163,10.0,20.0,64,0.06,,,0.11,meteohub,2013-02-05 12:38:00,
2013-02-05 04:41:00,50.7,43.5,29.91,South,190,14.0,20.0,70,0.01,,,0.24,meteohub,2013-02-05 12:41:00,
2013-02-05 04:42:00,50.7,43.5,29.91,South,182,7.0,20.0,70,0.01,,,0.24,meteohub,2013-02-05 12:42:00,
2013-02-05 04:43:00,46.0,42.8,29.88,South,169,9.0,20.0,64,0.06,,,0.12,meteohub,2013-02-05 12:43:00,
2013-02-05 04:47:00,51.1,43.7,29.91,South,181,13.0,20.0,71,0.01,,,0.24,meteohub,2013-02-05 12:47:00,
2013-02-05 04:48:00,46.0,42.8,29.88,SE,139,21.0,21.0,64,0.06,,,0.13,meteohub,2013-02-05 12:48:00,
2013-02-05 04:49:00,50.9,43.7,29.91,South,186,11.0,20.0,71,0.01,,,0.24,meteohub,2013-02-05 12:49:00,
2013-02-05 04:52:00,50.7,43.7,29.91,South,186,9.0,20.0,72,0.01,,,0.24,meteohub,2013-02-05 12:52:00,
2013-02-05 04:53:00,46.0,42.8,29.87,SSE,155,11.0,20.0,64,0.06,,,0.13,meteohub,2013-02-05 12:53:00,
2013-02-05 04:55:00,50.9,43.7,29.91,South,186,9.0,20.0,72,0.01,,,0.24,meteohub,2013-02-05 12:55:00,
2013-02-05 04:56:00,50.9,43.7,29.91,South,185,7.0,20.0,72,0.01,,,0.24,meteohub,2013-02-05 12:56:00,
2013-02-05 04:58:00,46.0,42.8,29.87,SSE,163,11.0,26.0,64,0.04,,,0.13,meteohub,2013-02-05 12:58:00,
2013-02-05 05:02:00,50.7,43.7,29.90,SSW,196,13.0,20.0,72,0.01,,,0.24,meteohub,2013-02-05 13:02:00,
2013-02-05 05:03:00,46.0,42.8,29.87,SSE,167,9.0,26.0,64,0.04,,,0.13,meteohub,2013-02-05 13:03:00,
2013-02-05 05:04:00,50.7,43.7,29.91,SSE,156,16.0,20.0,72,0.01,,,0.24,meteohub,2013-02-05 13:04:00,
2013-02-05 05:08:00,46.0,42.8,29.87,SSE,154,10.0,26.0,64,0.03,,,0.13,meteohub,2013-02-05 13:08:00,
2013-02-05 05:09:00,50.5,43.7,29.91,South,187,9.0,21.0,72,0.01,,,0.24,meteohub,2013-02-05 13:09:00,
2013-02-05 05:11:00,50.7,43.7,29.91,SW,217,13.0,21.0,72,0.01,,,0.24,meteohub,2013-02-05 13:11:00,
2013-02-05 05:12:00,50.7,43.9,29.91,South,178,17.0,21.0,72,0.01,,,0.24,meteohub,2013-02-05 13:12:00,
2013-02-05 05:13:00,46.0,42.8,29.87,SSE,161,10.0,19.0,64,0.03,,,0.13,meteohub,2013-02-05 13:13:00,
2013-02-05 05:14:00,50.7,43.9,29.91,SSW,204,10.0,21.0,72,0.01,,,0.24,meteohub,2013-02-05 13:14:00,
2013-02-05 05:17:00,50.5,44.4,29.91,South,186,19.0,20.0,72,0.00,,,0.24,meteohub,2013-02-05 13:17:00,
2013-02-05 05:18:00,46.0,42.8,29.87,SSE,147,9.0,19.0,64,0.02,,,0.13,meteohub,2013-02-05 13:18:00,
2013-02-05 05:19:00,50.4,44.4,29.91,SSW,197,10.0,20.0,72,0.00,,,0.24,meteohub,2013-02-05 13:19:00,
2013-02-05 05:23:00,46.0,42.8,29.87,SSW,194,5.0,22.0,64,0.02,,,0.13,meteohub,2013-02-05 13:23:00,
2013-02-05 05:28:00,46.0,42.8,29.87,SSE,151,12.0,22.0,64,0.02,,,0.13,meteohub,2013-02-05 13:28:00,
2013-02-05 05:33:00,46.2,42.8,29.86,SE,146,12.0,22.0,63,0.02,,,0.13,meteohub,2013-02-05 13:33:00,
2013-02-05 05:38:00,46.2,42.8,29.86,South,184,11.0,21.0,63,0.01,,,0.13,meteohub,2013-02-05 13:38:00,
2013-02-05 05:43:00,46.4,42.8,29.87,SSE,148,11.0,21.0,63,0.01,,,0.13,meteohub,2013-02-05 13:43:00,
2013-02-05 05:48:00,46.4,42.8,29.87,South,183,5.0,21.0,63,0.00,,,0.13,meteohub,2013-02-05 13:48:00,
2013-02-05 05:53:00,46.4,42.8,29.87,SSE,162,5.0,21.0,63,0.00,,,0.13,meteohub,2013-02-05 13:53:00,
2013-02-05 05:58:00,46.2,42.6,29.87,South,178,13.0,21.0,63,0.00,,,0.13,meteohub,2013-02-05 13:58:00,
2013-02-05 06:03:00,46.4,42.6,29.87,South,171,10.0,24.0,63,0.00,,,0.13,meteohub,2013-02-05 14:03:00,
2013-02-05 06:08:00,46.4,42.6,29.87,South,170,11.0,24.0,63,0.00,,,0.13,meteohub,2013-02-05 14:08:00,
2013-02-05 06:13:00,46.6,42.6,29.86,South,183,12.0,24.0,63,0.00,,,0.13,meteohub,2013-02-05 14:13:00,
2013-02-05 06:18:00,46.6,42.6,29.87,SSE,157,15.0,21.0,63,0.01,,,0.13,meteohub,2013-02-05 14:18:00,
2013-02-05 06:23:00,46.8,42.6,29.87,South,178,8.0,19.0,63,0.01,,,0.14,meteohub,2013-02-05 14:23:00,
2013-02-05 06:28:00,46.9,42.6,29.86,SE,140,10.0,24.0,63,0.02,,,0.15,meteohub,2013-02-05 14:28:00,
2013-02-05 06:34:00,46.9,42.6,29.87,South,179,8.0,24.0,63,0.02,,,0.15,meteohub,2013-02-05 14:34:00,
2013-02-05 06:39:00,47.1,42.6,29.87,South,169,5.0,21.0,63,0.02,,,0.15,meteohub,2013-02-05 14:39:00,
2013-02-05 06:44:00,47.1,42.6,29.87,SSE,165,13.0,23.0,63,0.04,,,0.17,meteohub,2013-02-05 14:44:00,
2013-02-05 06:49:00,47.1,42.6,29.87,South,188,18.0,23.0,63,0.05,,,0.18,meteohub,2013-02-05 14:49:00,
2013-02-05 06:54:00,47.1,42.6,29.87,South,184,7.0,24.0,63,0.06,,,0.19,meteohub,2013-02-05 14:54:00,
2013-02-05 06:59:00,47.1,42.6,29.87,South,184,10.0,24.0,63,0.08,,,0.21,meteohub,2013-02-05 14:59:00,
2013-02-05 07:04:00,47.1,42.6,29.87,SSE,161,15.0,24.0,63,0.08,,,0.21,meteohub,2013-02-05 15:04:00,
2013-02-05 07:10:00,47.1,42.6,29.87,South,176,11.0,19.0,63,0.08,,,0.21,meteohub,2013-02-05 15:10:00,
2013-02-05 07:15:00,47.5,42.6,29.87,SSW,202,7.0,24.0,63,0.08,,,0.21,meteohub,2013-02-05 15:15:00,
2013-02-05 07:20:00,47.7,42.6,29.87,SSW,205,15.0,24.0,63,0.07,,,0.21,meteohub,2013-02-05 15:20:00,
2013-02-05 07:25:00,47.7,42.6,29.87,SSW,192,17.0,24.0,63,0.07,,,0.21,meteohub,2013-02-05 15:25:00,
2013-02-05 07:30:00,47.7,42.6,29.87,South,190,13.0,24.0,63,0.07,,,0.22,meteohub,2013-02-05 15:30:00,
2013-02-05 07:35:00,47.7,42.6,29.87,South,186,12.0,25.0,64,0.07,,,0.22,meteohub,2013-02-05 15:35:00,
2013-02-05 07:40:00,47.7,42.6,29.87,South,174,15.0,25.0,63,0.06,,,0.22,meteohub,2013-02-05 15:40:00,
2013-02-05 07:46:00,47.8,42.6,29.87,South,184,17.0,25.0,63,0.04,,,0.22,meteohub,2013-02-05 15:46:00,
2013-02-05 07:50:00,46.9,44.4,29.91,WSW,247,10.0,17.0,67,-99.99,,,0.29,meteohub,2013-02-05 15:50:00,
2013-02-05 07:51:00,47.8,42.6,29.87,South,188,16.0,23.0,63,0.04,,,0.22,meteohub,2013-02-05 15:51:00,
2013-02-05 07:52:00,46.9,44.4,29.91,SW,236,12.0,17.0,67,0.04,,,0.29,meteohub,2013-02-05 15:52:00,
2013-02-05 07:54:00,46.9,44.4,29.91,WSW,248,13.0,17.0,67,0.04,,,0.29,meteohub,2013-02-05 15:54:00,
2013-02-05 07:56:00,47.8,42.6,29.88,SSW,200,14.0,23.0,63,0.03,,,0.22,meteohub,2013-02-05 15:56:00,
2013-02-05 08:01:00,47.8,42.6,29.88,SSW,205,12.0,23.0,63,0.01,,,0.22,meteohub,2013-02-05 16:01:00,
2013-02-05 08:02:00,46.9,44.2,29.91,SW,223,12.0,22.0,66,0.04,,,0.29,meteohub,2013-02-05 16:02:00,
2013-02-05 08:04:00,46.9,44.2,29.91,WSW,245,18.0,22.0,66,0.04,,,0.29,meteohub,2013-02-05 16:04:00,
2013-02-05 08:05:00,46.9,44.2,29.91,WSW,245,10.0,22.0,66,0.04,,,0.29,meteohub,2013-02-05 16:05:00,
2013-02-05 08:06:00,48.0,42.6,29.88,South,178,15.0,22.0,63,0.02,,,0.23,meteohub,2013-02-05 16:06:00,
2013-02-05 08:07:00,47.1,44.2,29.91,SW,235,15.0,22.0,66,0.03,,,0.29,meteohub,2013-02-05 16:07:00,
2013-02-05 08:09:00,47.1,44.2,29.91,SSW,192,8.0,22.0,65,0.03,,,0.29,meteohub,2013-02-05 16:09:00,
2013-02-05 08:10:00,47.1,44.2,29.91,SW,224,7.0,22.0,65,0.03,,,0.29,meteohub,2013-02-05 16:10:00,
2013-02-05 08:11:00,48.0,42.6,29.88,South,180,10.0,22.0,63,0.02,,,0.23,meteohub,2013-02-05 16:11:00,
2013-02-05 08:12:00,47.5,44.2,29.91,WSW,243,11.0,22.0,65,0.03,,,0.29,meteohub,2013-02-05 16:12:00,
2013-02-05 08:14:00,47.7,44.2,29.91,SW,228,10.0,22.0,65,0.03,,,0.29,meteohub,2013-02-05 16:14:00,
2013-02-05 08:15:00,47.8,44.2,29.91,SSW,211,4.0,22.0,64,0.03,,,0.29,meteohub,2013-02-05 16:15:00,
2013-02-05 08:16:00,48.0,42.6,29.88,SSW,213,11.0,23.0,63,0.02,,,0.23,meteohub,2013-02-05 16:16:00,
2013-02-05 08:17:00,47.8,44.2,29.91,South,189,5.0,18.0,64,0.02,,,0.29,meteohub,2013-02-05 16:17:00,
2013-02-05 08:18:00,48.0,44.2,29.91,SSW,198,6.0,18.0,65,0.02,,,0.29,meteohub,2013-02-05 16:18:00,
2013-02-05 08:20:00,47.8,44.2,29.91,South,184,7.0,18.0,65,0.02,,,0.29,meteohub,2013-02-05 16:20:00,
2013-02-05 08:21:00,48.0,42.6,29.88,South,186,14.0,24.0,63,0.02,,,0.23,meteohub,2013-02-05 16:21:00,
2013-02-05 08:24:00,47.7,44.2,29.91,SSW,209,11.0,17.0,65,0.02,,,0.29,meteohub,2013-02-05 16:24:00,
2013-02-05 08:25:00,47.7,44.2,29.91,SW,218,8.0,17.0,65,0.02,,,0.29,meteohub,2013-02-05 16:25:00,
2013-02-05 08:27:00,48.2,42.6,29.88,SSW,195,11.0,26.0,63,0.02,,,0.23,meteohub,2013-02-05 16:27:00,
2013-02-05 08:32:00,48.0,42.6,29.88,South,180,7.0,26.0,63,0.01,,,0.23,meteohub,2013-02-05 16:32:00,
2013-02-05 08:37:00,48.0,42.6,29.88,SSW,195,14.0,23.0,63,0.01,,,0.23,meteohub,2013-02-05 16:37:00,
2013-02-05 08:42:00,48.0,42.6,29.88,South,182,15.0,22.0,63,0.01,,,0.23,meteohub,2013-02-05 16:42:00,
2013-02-05 08:47:00,48.2,42.6,29.88,South,181,10.0,22.0,63,0.01,,,0.23,meteohub,2013-02-05 16:47:00,
2013-02-05 08:52:00,48.0,42.8,29.88,South,173,12.0,22.0,63,0.01,,,0.23,meteohub,2013-02-05 16:52:00,
2013-02-05 08:58:00,48.2,42.8,29.88,SSE,163,10.0,21.0,63,0.00,,,0.23,meteohub,2013-02-05 16:58:00,
2013-02-05 09:03:00,48.4,42.8,29.88,South,177,13.0,21.0,63,0.00,,,0.23,meteohub,2013-02-05 17:03:00,
2013-02-05 09:08:00,48.6,42.8,29.88,South,184,6.0,21.0,63,0.00,,,0.23,meteohub,2013-02-05 17:08:00,
2013-02-05 09:13:00,48.6,42.8,29.89,South,177,10.0,21.0,64,0.00,,,0.23,meteohub,2013-02-05 17:13:00,
2013-02-05 09:18:00,48.6,42.8,29.89,South,181,15.0,21.0,64,0.00,,,0.23,meteohub,2013-02-05 17:18:00,
2013-02-05 09:23:00,48.7,42.8,29.89,South,177,9.0,21.0,64,0.00,,,0.23,meteohub,2013-02-05 17:23:00,
2013-02-05 09:28:00,48.7,42.8,29.89,South,187,13.0,21.0,64,0.00,,,0.23,meteohub,2013-02-05 17:28:00,
2013-02-05 09:33:00,48.9,43.0,29.89,South,179,8.0,21.0,64,0.00,,,0.23,meteohub,2013-02-05 17:33:00,
2013-02-05 09:38:00,48.9,43.0,29.89,South,173,10.0,19.0,64,0.00,,,0.23,meteohub,2013-02-05 17:38:00,
2013-02-05 09:43:00,49.1,43.0,29.89,South,182,7.0,19.0,65,0.00,,,0.23,meteohub,2013-02-05 17:43:00,
2013-02-05 09:48:00,49.1,43.0,29.90,South,184,7.0,19.0,64,0.00,,,0.23,meteohub,2013-02-05 17:48:00,
2013-02-05 09:53:00,49.3,43.0,29.89,South,183,8.0,19.0,65,0.00,,,0.23,meteohub,2013-02-05 17:53:00,
2013-02-05 09:58:00,49.3,43.0,29.89,South,174,8.0,20.0,65,0.00,,,0.23,meteohub,2013-02-05 17:58:00,
2013-02-05 10:03:00,48.9,43.0,29.89,SSE,158,9.0,20.0,65,0.00,,,0.23,meteohub,2013-02-05 18:03:00,
2013-02-05 10:08:00,48.2,43.0,29.90,South,184,16.0,25.0,70,0.00,,,0.23,meteohub,2013-02-05 18:08:00,
2013-02-05 10:13:00,47.5,43.0,29.90,South,188,10.0,25.0,68,0.00,,,0.23,meteohub,2013-02-05 18:13:00,
2013-02-05 10:18:00,47.1,43.0,29.91,SSW,202,10.0,25.0,69,0.00,,,0.23,meteohub,2013-02-05 18:18:00,
2013-02-05 10:23:00,47.7,43.0,29.91,SSW,199,13.0,19.0,69,0.00,,,0.23,meteohub,2013-02-05 18:23:00,
2013-02-05 10:28:00,48.0,43.2,29.91,SSW,205,9.0,19.0,68,0.00,,,0.23,meteohub,2013-02-05 18:28:00,
2013-02-05 10:33:00,48.9,43.2,29.91,South,190,4.0,19.0,67,0.00,,,0.23,meteohub,2013-02-05 18:33:00,
2013-02-05 10:38:00,49.3,43.2,29.91,South,181,5.0,13.0,67,0.00,,,0.23,meteohub,2013-02-05 18:38:00,
2013-02-05 10:43:00,49.3,43.2,29.91,South,179,10.0,12.0,67,0.00,,,0.23,meteohub,2013-02-05 18:43:00,
2013-02-05 10:48:00,49.5,43.2,29.91,South,186,8.0,12.0,66,0.00,,,0.23,meteohub,2013-02-05 18:48:00,
2013-02-05 10:53:00,49.8,43.2,29.91,SSW,204,6.0,12.0,65,0.00,,,0.23,meteohub,2013-02-05 18:53:00,
2013-02-05 10:58:00,50.2,43.2,29.91,SSW,201,8.0,19.0,65,0.00,,,0.23,meteohub,2013-02-05 18:58:00,
2013-02-05 11:03:00,50.0,43.2,29.91,South,187,11.0,19.0,66,0.00,,,0.23,meteohub,2013-02-05 19:03:00,
2013-02-05 11:08:00,49.6,43.2,29.91,SSW,205,9.0,20.0,66,0.00,,,0.23,meteohub,2013-02-05 19:08:00,
2013-02-05 11:13:00,49.6,43.2,29.91,South,185,11.0,20.0,66,0.00,,,0.23,meteohub,2013-02-05 19:13:00,
2013-02-05 11:18:00,49.6,43.2,29.91,South,186,7.0,18.0,66,0.00,,,0.23,meteohub,2013-02-05 19:18:00,
2013-02-05 11:24:00,50.2,43.2,29.91,SSW,192,6.0,18.0,65,0.00,,,0.23,meteohub,2013-02-05 19:24:00,
2013-02-05 11:29:00,50.7,43.3,29.90,SSW,200,20.0,20.0,65,0.00,,,0.23,meteohub,2013-02-05 19:29:00,
2013-02-05 11:34:00,51.1,43.3,29.91,SSW,211,12.0,25.0,66,0.00,,,0.23,meteohub,2013-02-05 19:34:00,
2013-02-05 11:39:00,50.7,43.3,29.91,SSW,199,13.0,28.0,67,0.01,,,0.24,meteohub,2013-02-05 19:39:00,
2013-02-05 11:44:00,50.4,43.5,29.91,SSW,210,12.0,28.0,68,0.01,,,0.24,meteohub,2013-02-05 19:44:00,
2013-02-05 11:49:00,50.2,43.5,29.91,SSW,195,7.0,28.0,68,0.01,,,0.24,meteohub,2013-02-05 19:49:00,
2013-02-05 11:54:00,50.5,43.5,29.91,South,185,18.0,25.0,69,0.01,,,0.24,meteohub,2013-02-05 19:54:00,
2013-02-05 12:00:00,50.7,43.5,29.91,SSW,202,10.0,25.0,70,0.01,,,0.24,meteohub,2013-02-05 20:00:00,
2013-02-05 12:05:00,50.9,43.7,29.91,SSW,202,9.0,20.0,70,0.01,,,0.24,meteohub,2013-02-05 20:05:00,
2013-02-05 12:10:00,50.9,43.7,29.91,South,169,10.0,20.0,71,0.01,,,0.24,meteohub,2013-02-05 20:10:00,
2013-02-05 12:15:00,50.7,43.7,29.91,South,173,8.0,20.0,72,0.01,,,0.24,meteohub,2013-02-05 20:15:00,
2013-02-05 12:20:00,51.1,43.7,29.91,South,180,9.0,20.0,72,0.01,,,0.24,meteohub,2013-02-05 20:20:00,
2013-02-05 12:25:00,50.7,43.7,29.91,South,176,9.0,20.0,72,0.01,,,0.24,meteohub,2013-02-05 20:25:00,
2013-02-05 12:31:00,50.7,43.7,29.91,South,171,8.0,21.0,72,0.01,,,0.24,meteohub,2013-02-05 20:31:00,
2013-02-05 12:36:00,50.7,43.9,29.91,South,183,9.0,21.0,72,0.01,,,0.24,meteohub,2013-02-05 20:36:00,
2013-02-05 12:41:00,50.4,44.4,29.91,SW,215,12.0,20.0,72,0.00,,,0.24,meteohub,2013-02-05 20:41:00,
2013-02-05 12:47:00,48.7,44.2,29.91,WSW,244,15.0,24.0,73,0.00,,,0.25,meteohub,2013-02-05 20:47:00,
2013-02-05 12:52:00,47.8,44.2,29.91,SW,229,16.0,29.0,72,0.01,,,0.25,meteohub,2013-02-05 20:52:00,
2013-02-05 12:57:00,47.7,44.2,29.91,SSW,196,8.0,29.0,70,0.01,,,0.25,meteohub,2013-02-05 20:57:00,
2013-02-05 13:02:00,48.0,44.2,29.90,SSW,194,12.0,27.0,68,0.01,,,0.25,meteohub,2013-02-05 21:02:00,
2013-02-05 13:07:00,48.4,44.4,29.90,South,190,9.0,20.0,68,0.01,,,0.25,meteohub,2013-02-05 21:07:00,
2013-02-05 13:12:00,48.6,44.4,29.90,SSW,209,13.0,21.0,68,0.01,,,0.25,meteohub,2013-02-05 21:12:00,
2013-02-05 13:17:00,48.7,44.4,29.90,South,190,8.0,21.0,69,0.01,,,0.25,meteohub,2013-02-05 21:17:00,
2013-02-05 13:23:00,48.9,44.4,29.90,SSW,200,5.0,21.0,70,0.01,,,0.25,meteohub,2013-02-05 21:23:00,
2013-02-05 13:28:00,49.1,44.4,29.90,South,188,10.0,18.0,70,0.01,,,0.25,meteohub,2013-02-05 21:28:00,
2013-02-05 13:33:00,49.6,44.4,29.90,South,181,18.0,18.0,70,0.01,,,0.25,meteohub,2013-02-05 21:33:00,
2013-02-05 13:38:00,50.0,44.4,29.90,South,174,10.0,18.0,69,0.01,,,0.25,meteohub,2013-02-05 21:38:00,
2013-02-05 13:39:00,48.9,43.2,29.97,West,270,24.0,26.0,69,0.00,,,0.30,meteohub,2013-02-05 21:39:00,
2013-02-05 13:40:00,48.9,43.2,29.97,SW,234,17.0,26.0,69,0.00,,,0.30,meteohub,2013-02-05 21:40:00,
2013-02-05 13:41:00,48.9,43.2,29.97,South,174,11.0,29.0,69,0.00,,,0.30,meteohub,2013-02-05 21:41:00,
2013-02-05 13:42:00,48.9,43.2,29.97,SSW,210,16.0,29.0,69,0.00,,,0.30,meteohub,2013-02-05 21:42:00,
2013-02-05 13:43:00,50.2,44.4,29.90,South,190,11.0,19.0,69,0.01,,,0.25,meteohub,2013-02-05 21:43:00,
2013-02-05 13:44:00,48.9,43.2,29.97,SW,223,21.0,29.0,69,0.00,,,0.30,meteohub,2013-02-05 21:44:00,
2013-02-05 13:45:00,48.9,43.2,29.97,WSW,238,19.0,29.0,69,0.00,,,0.30,meteohub,2013-02-05 21:45:00,
2013-02-05 13:46:00,48.9,43.2,29.97,South,180,12.0,29.0,69,0.00,,,0.30,meteohub,2013-02-05 21:46:00,
2013-02-05 13:47:00,48.9,43.2,29.97,SW,231,18.0,29.0,69,0.00,,,0.30,meteohub,2013-02-05 21:47:00,
2013-02-05 13:48:00,50.0,44.4,29.90,South,182,9.0,19.0,70,0.00,,,0.25,meteohub,2013-02-05 21:48:00,
2013-02-05 13:49:00,48.9,43.2,29.97,WSW,252,24.0,29.0,69,0.00,,,0.30,meteohub,2013-02-05 21:49:00,
2013-02-05 13:50:00,48.9,43.2,29.97,WSW,242,24.0,29.0,69,0.00,,,0.30,meteohub,2013-02-05 21:50:00,
2013-02-05 13:51:00,48.9,43.2,29.98,WSW,245,20.0,29.0,69,0.00,,,0.30,meteohub,2013-02-05 21:51:00,
2013-02-05 13:52:00,48.9,43.2,29.97,SW,219,13.0,29.0,69,0.00,,,0.30,meteohub,2013-02-05 21:52:00,
2013-02-05 13:53:00,50.0,44.4,29.90,South,184,9.0,19.0,70,0.00,,,0.25,meteohub,2013-02-05 21:53:00,
2013-02-05 13:54:00,48.9,43.0,29.97,SW,221,18.0,29.0,69,0.00,,,0.30,meteohub,2013-02-05 21:54:00,
2013-02-05 13:55:00,48.9,43.0,29.97,WSW,242,21.0,29.0,69,0.00,,,0.30,meteohub,2013-02-05 21:55:00,
2013-02-05 13:56:00,48.9,43.0,29.98,SSW,211,17.0,27.0,69,0.00,,,0.30,meteohub,2013-02-05 21:56:00,
2013-02-05 13:57:00,48.9,43.0,29.97,WSW,257,18.0,27.0,69,0.00,,,0.30,meteohub,2013-02-05 21:57:00,
2013-02-05 13:58:00,50.2,44.4,29.90,SSW,209,15.0,19.0,70,0.00,,,0.25,meteohub,2013-02-05 21:58:00,
2013-02-05 13:59:00,48.7,43.0,29.97,SW,229,14.0,27.0,69,0.00,,,0.30,meteohub,2013-02-05 21:59:00,
2013-02-05 14:00:00,48.7,43.0,29.97,WSW,248,18.0,27.0,69,0.00,,,0.30,meteohub,2013-02-05 22:00:00,
2013-02-05 14:01:00,48.7,43.0,29.98,WSW,240,20.0,28.0,69,0.00,,,0.30,meteohub,2013-02-05 22:01:00,
2013-02-05 14:02:00,48.7,43.0,29.97,WSW,244,21.0,28.0,70,0.00,,,0.30,meteohub,2013-02-05 22:02:00,
2013-02-05 14:03:00,49.8,44.4,29.90,South,175,15.0,22.0,70,0.00,,,0.25,meteohub,2013-02-05 22:03:00,
2013-02-05 14:04:00,48.7,43.0,29.97,South,188,17.0,28.0,70,0.00,,,0.30,meteohub,2013-02-05 22:04:00,
2013-02-05 14:05:00,48.7,43.0,29.97,WNW,298,15.0,28.0,70,0.00,,,0.30,meteohub,2013-02-05 22:05:00,
2013-02-05 14:06:00,48.7,43.0,29.98,West,266,12.0,28.0,70,0.00,,,0.30,meteohub,2013-02-05 22:06:00,
2013-02-05 14:07:00,48.7,43.0,29.98,SW,235,15.0,28.0,70,0.00,,,0.30,meteohub,2013-02-05 22:07:00,
2013-02-05 14:08:00,49.8,44.4,29.90,SSW,201,18.0,26.0,70,0.00,,,0.25,meteohub,2013-02-05 22:08:00,
2013-02-05 14:09:00,48.7,43.0,29.98,WSW,256,17.0,28.0,70,0.00,,,0.30,meteohub,2013-02-05 22:09:00,
2013-02-05 14:10:00,48.7,43.0,29.98,SSW,200,14.0,28.0,70,0.00,,,0.30,meteohub,2013-02-05 22:10:00,
2013-02-05 14:12:00,48.6,43.0,29.98,WSW,238,14.0,28.0,70,0.00,,,0.30,meteohub,2013-02-05 22:12:00,
2013-02-05 14:13:00,49.6,44.4,29.90,SSW,208,14.0,26.0,69,0.00,,,0.25,meteohub,2013-02-05 22:13:00,
2013-02-05 14:14:00,48.6,43.0,29.98,SW,229,20.0,28.0,70,0.00,,,0.30,meteohub,2013-02-05 22:14:00,
2013-02-05 14:15:00,48.6,43.0,29.98,SW,232,17.0,28.0,70,0.00,,,0.30,meteohub,2013-02-05 22:15:00,
2013-02-05 14:17:00,48.6,43.0,29.98,South,183,13.0,28.0,70,0.00,,,0.30,meteohub,2013-02-05 22:17:00,
2013-02-05 14:18:00,49.5,44.4,29.90,South,170,10.0,26.0,68,0.00,,,0.25,meteohub,2013-02-05 22:18:00,
2013-02-05 14:19:00,48.6,43.0,29.99,WSW,249,17.0,28.0,70,0.00,,,0.30,meteohub,2013-02-05 22:19:00,
2013-02-05 14:20:00,48.6,43.0,29.98,WSW,250,20.0,28.0,70,0.00,,,0.30,meteohub,2013-02-05 22:20:00,
2013-02-05 14:22:00,48.6,43.0,29.98,South,188,8.0,28.0,71,0.00,,,0.30,meteohub,2013-02-05 22:22:00,
2013-02-05 14:23:00,48.6,44.4,29.90,SW,234,29.0,32.0,69,0.00,,,0.25,meteohub,2013-02-05 22:23:00,
2013-02-05 14:24:00,48.6,43.0,29.99,SW,221,16.0,28.0,71,0.00,,,0.30,meteohub,2013-02-05 22:24:00,
2013-02-05 14:25:00,48.6,43.0,29.99,WSW,239,13.0,28.0,71,0.00,,,0.30,meteohub,2013-02-05 22:25:00,
2013-02-05 14:28:00,47.3,44.4,29.90,WSW,257,28.0,34.0,71,0.00,,,0.25,meteohub,2013-02-05 22:28:00,
2013-02-05 14:33:00,46.9,44.4,29.90,South,186,9.0,34.0,70,0.01,,,0.26,meteohub,2013-02-05 22:33:00,
2013-02-05 14:38:00,46.8,44.4,29.91,SSW,194,13.0,34.0,69,0.02,,,0.27,meteohub,2013-02-05 22:38:00,
2013-02-05 14:43:00,46.6,44.4,29.91,South,173,12.0,31.0,69,0.02,,,0.27,meteohub,2013-02-05 22:43:00,
2013-02-05 14:48:00,46.4,44.4,29.91,South,181,12.0,21.0,68,0.02,,,0.27,meteohub,2013-02-05 22:48:00,
2013-02-05 14:54:00,46.2,44.4,29.91,SSW,211,10.0,21.0,68,0.02,,,0.27,meteohub,2013-02-05 22:54:00,
2013-02-05 14:59:00,46.8,44.4,29.91,SSW,196,7.0,21.0,68,0.02,,,0.27,meteohub,2013-02-05 22:59:00,
2013-02-05 15:04:00,46.8,44.4,29.91,SSW,210,6.0,18.0,68,0.03,,,0.28,meteohub,2013-02-05 23:04:00,
2013-02-05 15:09:00,46.9,44.4,29.91,SW,234,11.0,17.0,67,0.04,,,0.29,meteohub,2013-02-05 23:09:00,
2013-02-05 15:14:00,46.9,44.4,29.91,SW,234,6.0,17.0,67,0.04,,,0.29,meteohub,2013-02-05 23:14:00,
2013-02-05 15:19:00,47.1,44.4,29.91,West,271,16.0,19.0,66,0.04,,,0.29,meteohub,2013-02-05 23:19:00,
2013-02-05 15:25:00,46.9,44.2,29.91,WSW,241,17.0,22.0,66,0.04,,,0.29,meteohub,2013-02-05 23:25:00,
2013-02-05 15:30:00,47.1,44.2,29.91,SW,227,7.0,22.0,66,0.03,,,0.29,meteohub,2013-02-05 23:30:00,
2013-02-05 15:35:00,47.7,44.2,29.91,WSW,240,7.0,22.0,65,0.03,,,0.29,meteohub,2013-02-05 23:35:00,
2013-02-05 15:40:00,48.0,44.2,29.91,SSW,198,5.0,18.0,65,0.02,,,0.29,meteohub,2013-02-05 23:40:00,
2013-02-05 15:45:00,47.8,44.2,29.91,SSW,198,11.0,17.0,65,0.02,,,0.29,meteohub,2013-02-05 23:45:00,
2013-02-05 15:51:00,47.8,44.2,29.91,SSW,212,6.0,19.0,65,0.02,,,0.29,meteohub,2013-02-05 23:51:00,
2013-02-05 15:56:00,48.2,44.2,29.91,SSW,211,7.0,19.0,64,0.02,,,0.29,meteohub,2013-02-05 23:56:00,
2013-02-05 16:01:00,48.4,44.2,29.91,SW,216,19.0,19.0,64,0.01,,,0.29,meteohub,2013-02-06 00:01:00,
2013-02-05 16:06:00,48.6,44.2,29.91,SSW,209,19.0,19.0,65,0.01,,,0.29,meteohub,2013-02-06 00:06:00,
2013-02-05 16:11:00,48.9,44.2,29.91,SW,218,21.0,23.0,66,0.00,,,0.29,meteohub,2013-02-06 00:11:00,
2013-02-05 16:16:00,48.9,43.7,29.91,SSE,159,17.0,26.0,68,0.00,,,0.29,meteohub,2013-02-06 00:16:00,
2013-02-05 16:21:00,48.6,43.7,29.92,South,183,12.0,29.0,70,0.00,,,0.29,meteohub,2013-02-06 00:21:00,
2013-02-05 16:27:00,48.6,43.7,29.92,SSW,198,17.0,29.0,70,0.00,,,0.29,meteohub,2013-02-06 00:27:00,
2013-02-05 16:32:00,48.6,43.7,29.92,SSW,196,15.0,29.0,70,0.00,,,0.29,meteohub,2013-02-06 00:32:00,
2013-02-05 16:37:00,48.7,43.7,29.92,South,186,19.0,26.0,70,0.00,,,0.30,meteohub,2013-02-06 00:37:00,
2013-02-05 16:42:00,49.3,44.2,29.92,South,169,14.0,26.0,69,0.01,,,0.30,meteohub,2013-02-06 00:42:00,
2013-02-05 16:47:00,49.5,43.9,29.92,South,172,13.0,26.0,69,0.01,,,0.30,meteohub,2013-02-06 00:47:00,
2013-02-05 16:53:00,49.5,43.7,29.93,SSW,194,15.0,23.0,68,0.01,,,0.30,meteohub,2013-02-06 00:53:00,
2013-02-05 16:58:00,49.5,43.7,29.93,SSW,192,9.0,25.0,68,0.01,,,0.30,meteohub,2013-02-06 00:58:00,
2013-02-05 17:03:00,49.6,43.7,29.92,SW,224,10.0,25.0,68,0.01,,,0.30,meteohub,2013-02-06 01:03:00,
2013-02-05 17:08:00,49.5,43.7,29.92,South,186,11.0,23.0,68,0.01,,,0.30,meteohub,2013-02-06 01:08:00,
2013-02-05 17:13:00,49.3,44.2,29.93,SSW,203,11.0,21.0,68,0.01,,,0.30,meteohub,2013-02-06 01:13:00,
2013-02-05 17:19:00,49.3,44.2,29.93,SW,230,18.0,22.0,68,0.01,,,0.30,meteohub,2013-02-06 01:19:00,
2013-02-05 17:24:00,49.1,44.2,29.93,SSW,212,14.0,25.0,68,0.01,,,0.30,meteohub,2013-02-06 01:24:00,
2013-02-05 17:29:00,49.1,44.2,29.93,SW,223,17.0,25.0,68,0.01,,,0.30,meteohub,2013-02-06 01:29:00,
2013-02-05 17:34:00,49.3,44.2,29.93,SSW,213,13.0,25.0,68,0.01,,,0.30,meteohub,2013-02-06 01:34:00,
2013-02-05 17:39:00,49.3,44.1,29.93,SW,228,17.0,26.0,68,0.00,,,0.30,meteohub,2013-02-06 01:39:00,
2013-02-05 17:41:00,48.2,43.3,30.03,SW,219,18.0,22.0,72,0.00,,,0.00,meteohub,2013-02-06 01:41:00,
2013-02-05 17:44:00,48.2,42.8,30.03,WSW,244,15.0,22.0,72,0.00,,,0.00,meteohub,2013-02-06 01:44:00,
2013-02-05 17:45:00,49.1,44.1,29.93,South,179,12.0,26.0,68,0.00,,,0.30,meteohub,2013-02-06 01:45:00,
2013-02-05 17:46:00,48.2,42.8,30.03,WSW,238,14.0,22.0,72,0.00,,,0.00,meteohub,2013-02-06 01:46:00,
2013-02-05 17:49:00,48.4,42.8,30.03,SW,235,17.0,22.0,72,0.00,,,0.00,meteohub,2013-02-06 01:49:00,
2013-02-05 17:50:00,49.1,44.1,29.93,SSW,209,11.0,26.0,67,0.00,,,0.30,meteohub,2013-02-06 01:50:00,
2013-02-05 17:53:00,48.4,42.8,30.03,SSW,210,8.0,20.0,71,0.00,,,0.00,meteohub,2013-02-06 01:53:00,
2013-02-05 17:54:00,48.4,42.8,30.04,WSW,251,20.0,20.0,71,0.00,,,0.00,meteohub,2013-02-06 01:54:00,
2013-02-05 17:55:00,48.9,44.1,29.93,South,185,11.0,22.0,67,0.00,,,0.30,meteohub,2013-02-06 01:55:00,
2013-02-05 17:56:00,48.4,42.8,30.03,WSW,239,18.0,22.0,71,0.00,,,0.00,meteohub,2013-02-06 01:56:00,
2013-02-05 17:57:00,48.4,42.8,30.03,SW,226,17.0,22.0,71,0.00,,,0.00,meteohub,2013-02-06 01:57:00,
2013-02-05 17:58:00,48.2,42.8,30.03,SW,220,12.0,22.0,71,0.00,,,0.00,meteohub,2013-02-06 01:58:00,
2013-02-05 18:00:00,48.9,44.1,29.94,SW,227,21.0,23.0,67,0.00,,,0.30,meteohub,2013-02-06 02:00:00,
2013-02-05 18:05:00,48.9,44.1,29.94,SSW,200,17.0,24.0,67,0.00,,,0.30,meteohub,2013-02-06 02:05:00,
2013-02-05 18:06:00,48.2,42.8,30.03,WSW,238,15.0,22.0,71,0.00,,,0.00,meteohub,2013-02-06 02:06:00,
2013-02-05 18:07:00,48.2,42.6,30.03,SW,229,14.0,22.0,74,0.00,,,0.00,meteohub,2013-02-06 02:07:00,
2013-02-05 18:08:00,48.2,42.6,30.03,SW,231,14.0,22.0,74,0.00,,,0.00,meteohub,2013-02-06 02:08:00,
2013-02-05 18:09:00,48.2,42.6,30.03,SW,215,18.0,22.0,74,0.00,,,0.00,meteohub,2013-02-06 02:09:00,
2013-02-05 18:10:00,48.9,44.1,29.94,SSW,192,13.0,24.0,67,0.00,,,0.30,meteohub,2013-02-06 02:10:00,
2013-02-05 18:11:00,48.2,42.6,30.03,SW,221,12.0,21.0,74,0.00,,,0.00,meteohub,2013-02-06 02:11:00,
2013-02-05 18:12:00,48.2,43.2,30.03,WSW,237,8.0,21.0,74,0.00,,,0.00,meteohub,2013-02-06 02:12:00,
2013-02-05 18:13:00,48.2,43.2,30.03,SW,229,12.0,21.0,71,0.00,,,0.00,meteohub,2013-02-06 02:13:00,
2013-02-05 18:14:00,48.2,43.2,30.03,South,186,10.0,21.0,71,0.00,,,0.00,meteohub,2013-02-06 02:14:00,
2013-02-05 18:16:00,48.9,43.9,29.93,SSW,192,12.0,22.0,67,0.00,,,0.30,meteohub,2013-02-06 02:16:00,
2013-02-05 18:21:00,49.1,43.9,29.93,SSW,204,6.0,22.0,67,0.00,,,0.30,meteohub,2013-02-06 02:21:00,
2013-02-05 18:26:00,48.9,43.9,29.93,South,173,12.0,21.0,67,0.00,,,0.30,meteohub,2013-02-06 02:26:00,
2013-02-05 18:31:00,48.7,43.9,29.93,SW,220,18.0,19.0,67,0.00,,,0.30,meteohub,2013-02-06 02:31:00,
2013-02-05 18:35:00,47.7,42.6,30.04,WSW,244,17.0,28.0,71,0.00,,,0.00,meteohub,2013-02-06 02:35:00,
2013-02-05 18:36:00,48.6,43.9,29.94,South,171,10.0,21.0,68,0.00,,,0.30,meteohub,2013-02-06 02:36:00,
2013-02-05 18:41:00,47.7,42.6,30.04,WSW,257,14.0,25.0,71,0.00,,,0.00,meteohub,2013-02-06 02:41:00,
2013-02-05 18:42:00,48.4,43.9,29.94,SSW,203,14.0,26.0,69,0.00,,,0.30,meteohub,2013-02-06 02:42:00,
2013-02-05 18:45:00,47.7,42.6,30.03,WSW,252,17.0,25.0,71,0.00,,,0.00,meteohub,2013-02-06 02:45:00,
2013-02-05 18:47:00,48.0,43.9,29.94,SSW,198,8.0,26.0,70,0.00,,,0.30,meteohub,2013-02-06 02:47:00,
2013-02-05 18:49:00,47.7,42.6,30.03,South,191,15.0,22.0,71,0.00,,,0.00,meteohub,2013-02-06 02:49:00,
2013-02-05 18:50:00,47.7,42.6,30.03,WSW,239,17.0,22.0,71,0.00,,,0.00,meteohub,2013-02-06 02:50:00,
2013-02-05 18:52:00,48.0,43.9,29.94,SSW,197,10.0,20.0,69,0.00,,,0.30,meteohub,2013-02-06 02:52:00,
2013-02-05 18:55:00,47.8,42.6,30.04,WSW,246,21.0,23.0,71,0.00,,,0.00,meteohub,2013-02-06 02:55:00,
2013-02-05 18:57:00,48.2,43.9,29.94,SSW,202,10.0,20.0,72,0.00,,,0.30,meteohub,2013-02-06 02:57:00,
2013-02-05 18:58:00,47.8,42.6,30.04,WSW,250,12.0,24.0,71,0.00,,,0.00,meteohub,2013-02-06 02:58:00,
2013-02-05 19:00:00,47.7,42.6,30.04,WSW,257,17.0,24.0,71,0.00,,,0.00,meteohub,2013-02-06 03:00:00,
2013-02-05 19:02:00,47.7,42.6,30.04,West,259,17.0,24.0,71,0.00,,,0.00,meteohub,2013-02-06 03:02:00,
2013-02-05 19:03:00,48.4,43.9,29.95,SSW,205,7.0,18.0,68,0.00,,,0.30,meteohub,2013-02-06 03:03:00,
2013-02-05 19:04:00,47.7,42.6,30.04,SW,236,8.0,24.0,71,0.00,,,0.00,meteohub,2013-02-06 03:04:00,
2013-02-05 19:08:00,48.4,43.9,29.95,SSW,200,14.0,26.0,68,0.00,,,0.30,meteohub,2013-02-06 03:08:00,
2013-02-05 19:09:00,47.7,42.6,30.04,West,263,18.0,24.0,71,0.00,,,0.00,meteohub,2013-02-06 03:09:00,
2013-02-05 19:11:00,47.5,42.6,30.04,WSW,246,14.0,23.0,71,0.00,,,0.00,meteohub,2013-02-06 03:11:00,
2013-02-05 19:12:00,47.5,42.6,30.04,SW,229,13.0,23.0,71,0.00,,,0.00,meteohub,2013-02-06 03:12:00,
2013-02-05 19:13:00,47.8,43.9,29.95,SSW,212,17.0,26.0,69,0.00,,,0.30,meteohub,2013-02-06 03:13:00,
2013-02-05 19:18:00,47.7,43.9,29.95,SSW,213,12.0,26.0,69,0.00,,,0.30,meteohub,2013-02-06 03:18:00,
2013-02-05 19:23:00,47.5,43.9,29.95,South,180,9.0,26.0,70,0.00,,,0.30,meteohub,2013-02-06 03:23:00,
2013-02-05 19:28:00,47.5,43.9,29.95,SSW,198,7.0,26.0,71,0.00,,,0.30,meteohub,2013-02-06 03:28:00,
2013-02-05 19:33:00,47.7,43.7,29.95,SSW,200,19.0,26.0,70,0.00,,,0.30,meteohub,2013-02-06 03:33:00,
2013-02-05 19:38:00,47.8,43.7,29.96,SSW,199,10.0,24.0,70,0.00,,,0.30,meteohub,2013-02-06 03:38:00,
2013-02-05 19:43:00,48.2,43.7,29.96,SSW,198,7.0,19.0,68,0.00,,,0.30,meteohub,2013-02-06 03:43:00,
2013-02-05 19:48:00,48.6,43.2,29.96,South,173,13.0,19.0,67,0.00,,,0.30,meteohub,2013-02-06 03:48:00,
2013-02-05 19:53:00,48.7,43.2,29.96,WSW,245,25.0,25.0,67,0.00,,,0.30,meteohub,2013-02-06 03:53:00,
2013-02-05 19:58:00,48.7,43.2,29.96,SW,214,12.0,26.0,67,0.00,,,0.30,meteohub,2013-02-06 03:58:00,
2013-02-05 20:03:00,48.7,43.2,29.97,SW,235,20.0,30.0,68,0.00,,,0.30,meteohub,2013-02-06 04:03:00,
2013-02-05 20:08:00,48.9,43.2,29.96,SW,227,19.0,30.0,68,0.00,,,0.30,meteohub,2013-02-06 04:08:00,
2013-02-05 20:13:00,48.9,43.2,29.97,WSW,239,17.0,30.0,69,0.00,,,0.30,meteohub,2013-02-06 04:13:00,
2013-02-05 20:19:00,48.7,43.2,29.96,WSW,238,21.0,30.0,69,0.00,,,0.30,meteohub,2013-02-06 04:19:00,
2013-02-05 20:24:00,48.9,43.2,29.97,SW,234,21.0,30.0,70,0.00,,,0.30,meteohub,2013-02-06 04:24:00,
2013-02-05 20:29:00,48.9,43.2,29.97,WSW,239,18.0,30.0,69,0.00,,,0.30,meteohub,2013-02-06 04:29:00,
2013-02-05 20:34:00,48.9,43.2,29.97,SW,232,17.0,30.0,69,0.00,,,0.30,meteohub,2013-02-06 04:34:00,
2013-02-05 20:39:00,48.9,43.2,29.97,SSW,213,22.0,26.0,69,0.00,,,0.30,meteohub,2013-02-06 04:39:00,
2013-02-05 20:45:00,48.9,43.2,29.97,SSW,193,11.0,26.0,69,0.00,,,0.30,meteohub,2013-02-06 04:45:00,
2013-02-05 20:50:00,48.9,43.2,29.97,SSW,202,11.0,26.0,69,0.00,,,0.30,meteohub,2013-02-06 04:50:00,
2013-02-05 20:55:00,48.9,43.2,29.97,WSW,252,11.0,26.0,69,0.00,,,0.30,meteohub,2013-02-06 04:55:00,
2013-02-05 21:31:00,48.7,43.0,29.98,SSW,200,18.0,28.0,70,0.00,,,0.30,meteohub,2013-02-06 05:31:00,
2013-02-05 21:37:00,48.6,43.0,29.98,South,180,16.0,28.0,70,0.00,,,0.30,meteohub,2013-02-06 05:37:00,
2013-02-05 21:42:00,48.6,43.0,29.98,SSW,196,14.0,28.0,71,0.00,,,0.30,meteohub,2013-02-06 05:42:00,
2013-02-05 21:48:00,48.7,43.0,29.99,WSW,239,12.0,27.0,70,0.00,,,0.30,meteohub,2013-02-06 05:48:00,
2013-02-05 21:53:00,48.7,43.5,29.98,SW,218,8.0,26.0,70,0.00,,,0.30,meteohub,2013-02-06 05:53:00,
2013-02-05 21:58:00,48.7,43.5,29.98,SW,229,10.0,25.0,70,0.00,,,0.30,meteohub,2013-02-06 05:58:00,
2013-02-05 22:03:00,48.4,43.5,29.98,WSW,240,18.0,23.0,71,0.00,,,0.30,meteohub,2013-02-06 06:03:00,
2013-02-05 22:08:00,48.4,43.5,29.99,SSW,198,9.0,27.0,71,0.00,,,0.30,meteohub,2013-02-06 06:08:00,
2013-02-05 22:13:00,48.4,43.5,29.99,SSW,209,10.0,27.0,72,0.00,,,0.30,meteohub,2013-02-06 06:13:00,
2013-02-05 22:18:00,48.4,43.5,29.99,WSW,239,18.0,27.0,72,0.00,,,0.30,meteohub,2013-02-06 06:18:00,
2013-02-05 22:23:00,48.4,43.5,29.99,SSE,167,10.0,21.0,71,0.00,,,0.30,meteohub,2013-02-06 06:23:00,
2013-02-05 22:28:00,48.6,43.5,29.99,SW,221,9.0,21.0,71,0.00,,,0.30,meteohub,2013-02-06 06:28:00,
2013-02-05 22:33:00,48.6,43.5,29.99,SSW,196,7.0,21.0,71,0.00,,,0.30,meteohub,2013-02-06 06:33:00,
2013-02-05 22:38:00,48.6,43.5,29.99,SW,218,13.0,22.0,71,0.00,,,0.30,meteohub,2013-02-06 06:38:00,
2013-02-05 22:43:00,48.6,43.5,29.99,SSW,196,15.0,22.0,71,0.00,,,0.30,meteohub,2013-02-06 06:43:00,
2013-02-05 22:48:00,48.4,43.5,30.00,SSW,194,12.0,22.0,71,0.00,,,0.30,meteohub,2013-02-06 06:48:00,
2013-02-05 22:53:00,48.4,43.5,29.99,SW,225,8.0,22.0,71,0.00,,,0.30,meteohub,2013-02-06 06:53:00,
2013-02-05 22:58:00,48.4,43.5,30.00,SW,222,18.0,20.0,71,0.00,,,0.30,meteohub,2013-02-06 06:58:00,
2013-02-05 23:03:00,48.2,43.5,30.00,South,182,10.0,20.0,71,0.00,,,0.30,meteohub,2013-02-06 07:03:00,
2013-02-05 23:08:00,48.0,43.5,30.00,SSW,205,11.0,20.0,70,0.00,,,0.30,meteohub,2013-02-06 07:08:00,
2013-02-05 23:13:00,48.0,43.5,30.00,SW,223,11.0,19.0,70,0.00,,,0.30,meteohub,2013-02-06 07:13:00,
2013-02-05 23:18:00,48.0,43.5,30.00,SW,223,9.0,21.0,70,0.00,,,0.30,meteohub,2013-02-06 07:18:00,
2013-02-05 23:23:00,48.0,43.5,30.00,SSW,194,7.0,21.0,70,0.00,,,0.30,meteohub,2013-02-06 07:23:00,
2013-02-05 23:28:00,48.0,43.5,30.00,SSW,209,12.0,20.0,70,0.00,,,0.00,meteohub,2013-02-06 07:28:00,
2013-02-05 23:33:00,48.0,43.5,30.01,SW,234,8.0,20.0,70,0.00,,,0.00,meteohub,2013-02-06 07:33:00,
2013-02-05 23:38:00,48.0,43.5,30.00,SW,232,11.0,20.0,70,0.00,,,0.00,meteohub,2013-02-06 07:38:00,
2013-02-05 23:43:00,48.0,43.5,30.00,WSW,249,22.0,22.0,70,0.00,,,0.00,meteohub,2013-02-06 07:43:00,
2013-02-05 23:48:00,48.2,43.0,30.01,West,260,11.0,22.0,70,0.00,,,0.00,meteohub,2013-02-06 07:48:00,
2013-02-05 23:53:00,48.4,42.8,30.01,WSW,240,14.0,22.0,70,0.00,,,0.00,meteohub,2013-02-06 07:53:00,
2013-02-05 23:58:00,48.4,42.8,30.01,WSW,240,8.0,22.0,70,0.00,,,0.00,meteohub,2013-02-06 07:58:00,